Time;durP1;ratioP1;P1;durP2;ratioP2;P2;SDS_P1;SDS_P2;PMS_P1;PMS_P2;Temp;Humidity;BMP_temperature;BMP_pressure;BME280_temperature;BME280_humidity;BME280_pressure;Samples;Min_cycle;Max_cycle;Signal;HPM_P1;HPM_P2
2021/08/11 00:01:07;;;;;;;0.40;0.20;;;15.70;99.90;;;;;;5033573;28;20196;-66
2021/08/11 00:03:33;;;;;;;0.40;0.30;;;15.60;99.90;;;;;;5034580;28;20192;-66
2021/08/11 00:05:58;;;;;;;0.40;0.20;;;15.60;99.90;;;;;;5034476;28;20515;-66
2021/08/11 00:08:24;;;;;;;0.40;0.20;;;15.70;99.90;;;;;;5034218;28;20420;-66
2021/08/11 00:10:49;;;;;;;0.40;0.40;;;15.70;99.90;;;;;;5034506;28;20188;-66
2021/08/11 00:13:15;;;;;;;0.40;0.20;;;15.60;99.90;;;;;;5034431;28;20260;-66
2021/08/11 00:15:40;;;;;;;0.50;0.50;;;15.80;99.90;;;;;;5034589;28;20177;-66
2021/08/11 00:18:06;;;;;;;0.40;0.20;;;15.80;99.90;;;;;;5034154;28;20279;-66
2021/08/11 00:20:32;;;;;;;1.37;1.27;;;15.80;99.90;;;;;;5034314;28;20244;-66
2021/08/11 00:22:57;;;;;;;0.40;0.20;;;15.80;99.90;;;;;;5034229;28;20170;-66
2021/08/11 00:25:23;;;;;;;0.40;0.20;;;15.70;99.90;;;;;;5034266;28;20634;-66
2021/08/11 00:27:49;;;;;;;0.40;0.20;;;15.80;99.90;;;;;;5034047;28;20182;-66
2021/08/11 00:30:15;;;;;;;0.40;0.20;;;15.90;99.90;;;;;;5033139;28;20185;-66
2021/08/11 00:32:40;;;;;;;0.40;0.20;;;16.00;99.90;;;;;;5034218;28;20622;-66
2021/08/11 00:35:06;;;;;;;0.40;0.20;;;16.00;99.90;;;;;;5034162;28;20173;-66
2021/08/11 00:37:32;;;;;;;0.40;0.20;;;15.90;99.90;;;;;;5033943;28;20642;-66
2021/08/11 00:39:59;;;;;;;0.40;0.20;;;16.00;99.90;;;;;;5033968;28;20192;-66
2021/08/11 00:42:27;;;;;;;0.40;0.20;;;15.90;99.90;;;;;;5034096;28;20668;-66
2021/08/11 00:44:53;;;;;;;0.32;0.20;;;15.90;99.90;;;;;;5032989;28;20177;-66
2021/08/11 00:47:21;;;;;;;0.40;0.20;;;15.90;99.90;;;;;;5032740;28;20192;-66
2021/08/11 00:49:47;;;;;;;0.40;0.20;;;15.90;99.90;;;;;;5033640;28;20177;-66
2021/08/11 00:52:13;;;;;;;0.40;0.30;;;15.80;99.90;;;;;;5033773;28;20211;-66
2021/08/11 00:54:41;;;;;;;0.40;0.20;;;15.70;99.90;;;;;;5033761;28;20204;-66
2021/08/11 00:57:08;;;;;;;0.40;0.20;;;15.60;99.90;;;;;;5033735;28;20463;-66
2021/08/11 00:59:37;;;;;;;0.40;0.20;;;15.60;99.90;;;;;;5033774;28;20243;-66
2021/08/11 01:02:04;;;;;;;0.40;0.20;;;15.60;99.90;;;;;;5033824;28;20169;-66
2021/08/11 01:04:31;;;;;;;0.40;0.20;;;15.60;99.90;;;;;;5033618;28;20181;-66
2021/08/11 01:07:00;;;;;;;0.40;0.20;;;15.60;99.90;;;;;;5033648;28;20174;-66
2021/08/11 01:09:25;;;;;;;0.32;0.20;;;15.70;99.90;;;;;;5033796;28;20251;-66
2021/08/11 01:11:53;;;;;;;0.40;0.20;;;15.60;99.90;;;;;;5033861;28;20186;-66
2021/08/11 01:14:19;;;;;;;0.40;0.20;;;15.70;99.90;;;;;;5033681;28;20180;-66
2021/08/11 01:16:44;;;;;;;0.40;0.20;;;15.70;99.90;;;;;;5033365;28;20672;-66
2021/08/11 01:19:10;;;;;;;0.40;0.20;;;15.60;99.90;;;;;;5033350;28;20174;-66
2021/08/11 01:21:47;;;;;;;0.30;0.20;;;15.60;99.90;;;;;;5032556;28;20182;-66
2021/08/11 01:24:35;;;;;;;0.40;0.20;;;15.60;99.90;;;;;;5033749;28;20174;-66
2021/08/11 01:27:12;;;;;;;0.30;0.20;;;15.70;99.90;;;;;;5033417;28;20188;-66
2021/08/11 01:29:47;;;;;;;0.40;0.20;;;15.70;99.90;;;;;;5033484;28;20181;-66
2021/08/11 01:32:51;;;;;;;0.30;0.10;;;15.50;99.90;;;;;;5033473;28;20188;-66
2021/08/11 01:35:19;;;;;;;0.40;0.20;;;15.60;99.90;;;;;;5033469;28;20560;-66
2021/08/11 01:37:49;;;;;;;3.80;3.60;;;15.60;99.90;;;;;;5033205;28;20213;-66
2021/08/11 01:40:23;;;;;;;0.50;0.50;;;15.60;99.90;;;;;;5033244;28;20177;-66
2021/08/11 01:42:53;;;;;;;0.43;0.43;;;15.40;99.90;;;;;;5033395;28;20806;-66
2021/08/11 01:45:27;;;;;;;0.47;0.20;;;15.40;99.90;;;;;;5033263;28;20230;-66
2021/08/11 01:48:01;;;;;;;0.30;0.10;;;15.40;99.90;;;;;;5033144;28;20191;-66
2021/08/11 01:50:30;;;;;;;0.40;0.20;;;15.30;99.90;;;;;;5033148;28;20182;-66
2021/08/11 01:52:56;;;;;;;0.40;0.20;;;15.30;99.90;;;;;;5033291;28;20676;-66
2021/08/11 01:55:22;;;;;;;0.40;0.20;;;15.30;99.90;;;;;;5032195;28;20205;-66
2021/08/11 01:57:51;;;;;;;0.40;0.20;;;15.40;99.90;;;;;;5033345;28;20219;-66
2021/08/11 02:00:19;;;;;;;0.40;0.20;;;15.30;99.90;;;;;;5036845;28;20371;-66
2021/08/11 02:02:46;;;;;;;0.40;0.20;;;15.30;99.90;;;;;;5036824;28;20522;-66
2021/08/11 02:05:13;;;;;;;0.40;0.20;;;15.20;99.90;;;;;;5036928;28;20533;-66
2021/08/11 02:07:40;;;;;;;0.50;0.20;;;15.30;99.90;;;;;;5036880;28;20174;-66
2021/08/11 02:10:08;;;;;;;0.40;0.20;;;15.20;99.90;;;;;;5037058;28;20218;-68
2021/08/11 02:12:34;;;;;;;0.40;0.20;;;15.20;99.90;;;;;;5037152;28;20181;-67
2021/08/11 02:15:00;;;;;;;3.20;1.48;;;15.20;99.90;;;;;;5035901;28;20258;-67
2021/08/11 02:17:25;;;;;;;2.05;1.95;;;15.10;99.90;;;;;;5036459;28;20221;-67
2021/08/11 02:19:51;;;;;;;2.57;2.20;;;15.10;99.90;;;;;;5036567;28;20177;-66
2021/08/11 02:22:17;;;;;;;0.85;0.85;;;15.10;99.90;;;;;;5036540;28;20174;-66
2021/08/11 02:24:43;;;;;;;0.40;0.30;;;15.10;99.90;;;;;;5036570;28;20186;-66
2021/08/11 02:27:22;;;;;;;0.40;0.30;;;15.10;99.90;;;;;;5036511;28;20177;-66
2021/08/11 02:29:51;;;;;;;0.40;0.30;;;15.10;99.90;;;;;;5036255;28;20271;-66
2021/08/11 02:32:33;;;;;;;0.52;0.52;;;15.10;99.90;;;;;;5036298;28;20352;-66
2021/08/11 02:35:11;;;;;;;0.68;0.63;;;15.00;99.90;;;;;;5036347;28;20173;-66
2021/08/11 02:38:07;;;;;;;0.50;0.40;;;15.00;99.90;;;;;;5036048;28;20201;-66
2021/08/11 02:40:46;;;;;;;0.30;0.20;;;15.10;99.90;;;;;;5035770;28;20193;-66
2021/08/11 02:43:21;;;;;;;1.50;1.40;;;15.10;99.90;;;;;;5036450;28;20173;-66
2021/08/11 02:46:03;;;;;;;0.50;0.50;;;15.10;99.90;;;;;;5036195;28;20212;-66
2021/08/11 02:48:30;;;;;;;0.40;0.20;;;15.10;99.90;;;;;;5035813;28;20178;-66
2021/08/11 02:50:57;;;;;;;0.40;0.20;;;15.10;99.90;;;;;;5035980;28;20196;-66
2021/08/11 02:53:24;;;;;;;0.40;0.20;;;15.20;99.90;;;;;;5035974;28;20177;-66
2021/08/11 02:55:51;;;;;;;0.40;0.20;;;15.00;99.90;;;;;;5035828;28;20540;-66
2021/08/11 02:58:18;;;;;;;2.67;0.70;;;15.00;99.90;;;;;;5035653;28;20224;-66
2021/08/11 03:00:47;;;;;;;0.50;0.20;;;15.00;99.90;;;;;;5035923;28;20209;-66
2021/08/11 03:03:14;;;;;;;0.40;0.20;;;14.90;99.90;;;;;;5035726;28;20235;-66
2021/08/11 03:05:39;;;;;;;0.40;0.10;;;15.00;99.90;;;;;;5035722;28;20247;-66
2021/08/11 03:08:06;;;;;;;1.67;0.87;;;15.00;99.90;;;;;;5035202;28;20570;-66
2021/08/11 03:10:32;;;;;;;1.20;1.10;;;15.00;99.90;;;;;;5035673;28;20436;-66
2021/08/11 03:12:59;;;;;;;0.30;0.10;;;15.00;99.90;;;;;;5035612;28;20183;-66
2021/08/11 03:15:27;;;;;;;1.25;1.15;;;14.90;99.90;;;;;;5035643;28;20440;-66
2021/08/11 03:17:53;;;;;;;0.40;0.20;;;14.90;99.90;;;;;;5035198;28;20209;-67
2021/08/11 03:20:19;;;;;;;0.57;0.57;;;14.90;99.90;;;;;;5035324;28;20480;-66
2021/08/11 03:22:44;;;;;;;0.40;0.20;;;14.90;99.90;;;;;;5035438;28;20478;-67
2021/08/11 03:25:13;;;;;;;0.40;0.20;;;14.80;99.90;;;;;;5035436;28;20177;-66
2021/08/11 03:27:38;;;;;;;0.40;0.20;;;14.90;99.90;;;;;;5035542;28;20176;-66
2021/08/11 03:30:05;;;;;;;0.40;0.30;;;15.00;99.90;;;;;;5035710;28;20183;-66
2021/08/11 03:32:30;;;;;;;0.30;0.20;;;15.00;99.90;;;;;;5035340;28;20276;-67
2021/08/11 03:34:56;;;;;;;0.40;0.20;;;15.00;99.90;;;;;;5035349;28;20213;-67
2021/08/11 03:37:21;;;;;;;0.40;0.20;;;15.00;99.90;;;;;;5035389;28;20304;-67
2021/08/11 03:39:47;;;;;;;0.87;0.87;;;15.10;99.90;;;;;;5035003;28;20170;-67
2021/08/11 03:42:13;;;;;;;0.30;0.20;;;15.20;99.90;;;;;;5035148;28;20560;-67
2021/08/11 03:44:38;;;;;;;0.53;0.50;;;15.20;99.90;;;;;;5034958;28;20196;-67
2021/08/11 03:47:04;;;;;;;0.30;0.10;;;15.10;99.90;;;;;;5034769;28;20181;-67
2021/08/11 03:49:31;;;;;;;0.30;0.20;;;15.00;99.90;;;;;;5034795;28;20186;-68
2021/08/11 03:51:56;;;;;;;0.50;0.45;;;15.10;99.90;;;;;;5034829;28;20510;-67
2021/08/11 03:54:22;;;;;;;1.13;1.03;;;15.10;99.90;;;;;;5034705;28;20181;-67
2021/08/11 03:56:47;;;;;;;0.40;0.20;;;15.00;99.90;;;;;;5034559;28;20215;-67
2021/08/11 03:59:13;;;;;;;0.37;0.20;;;15.10;99.90;;;;;;5034548;28;20290;-67
2021/08/11 04:01:38;;;;;;;1.47;1.13;;;15.00;99.90;;;;;;5032725;28;20178;-67
2021/08/11 04:04:04;;;;;;;0.30;0.20;;;15.00;99.90;;;;;;5033646;28;20184;-67
2021/08/11 04:06:30;;;;;;;0.30;0.20;;;15.00;99.90;;;;;;5033545;28;20192;-67
2021/08/11 04:08:55;;;;;;;0.37;0.20;;;15.10;99.90;;;;;;5034253;28;20188;-67
2021/08/11 04:11:21;;;;;;;0.50;0.50;;;15.00;99.90;;;;;;5034032;28;20181;-67
2021/08/11 04:13:47;;;;;;;0.30;0.20;;;15.00;99.90;;;;;;5034438;28;20185;-67
2021/08/11 04:16:13;;;;;;;0.40;0.20;;;15.10;99.90;;;;;;5033197;28;20186;-67
2021/08/11 04:18:38;;;;;;;0.30;0.20;;;15.20;99.90;;;;;;5034148;28;20531;-67
2021/08/11 04:21:04;;;;;;;0.33;0.20;;;15.30;99.90;;;;;;5033501;28;20169;-67
2021/08/11 04:23:29;;;;;;;0.40;0.20;;;15.30;99.90;;;;;;5034082;28;20673;-67
2021/08/11 04:25:55;;;;;;;0.30;0.20;;;15.40;99.90;;;;;;5034036;28;20173;-67
2021/08/11 04:28:21;;;;;;;0.30;0.20;;;15.50;99.90;;;;;;5034116;28;20188;-67
2021/08/11 04:30:47;;;;;;;0.40;0.40;;;15.50;99.90;;;;;;5034095;28;20508;-67
2021/08/11 04:33:13;;;;;;;0.30;0.20;;;15.60;99.90;;;;;;5034158;28;20641;-67
2021/08/11 04:35:39;;;;;;;0.35;0.20;;;15.70;99.90;;;;;;5033921;28;20177;-67
2021/08/11 04:38:05;;;;;;;0.30;0.20;;;15.70;99.90;;;;;;5033818;28;20213;-67
2021/08/11 04:40:31;;;;;;;0.30;0.20;;;15.80;99.90;;;;;;5033768;28;20181;-67
2021/08/11 04:42:56;;;;;;;0.40;0.10;;;16.20;99.90;;;;;;5033841;28;20226;-67
2021/08/11 04:45:25;;;;;;;0.40;0.20;;;17.30;99.90;;;;;;5032796;28;20268;-67
2021/08/11 04:47:50;;;;;;;0.40;0.20;;;18.70;99.90;;;;;;5033859;28;20192;-67
2021/08/11 04:50:16;;;;;;;0.40;0.20;;;20.10;99.90;;;;;;5033560;28;20519;-67
2021/08/11 04:52:41;;;;;;;0.40;0.20;;;21.30;1.00;;;;;;5033698;28;20606;-67
2021/08/11 04:55:09;;;;;;;1.03;1.03;;;22.30;1.00;;;;;;5032705;28;20252;-67
2021/08/11 04:57:35;;;;;;;0.40;0.17;;;22.60;1.00;;;;;;5033617;28;20209;-67
2021/08/11 05:00:02;;;;;;;0.40;0.20;;;22.50;1.00;;;;;;5033646;28;20474;-67
2021/08/11 05:02:27;;;;;;;0.40;0.20;;;22.80;1.00;;;;;;5033625;28;20184;-67
2021/08/11 05:04:53;;;;;;;0.73;0.73;;;23.80;1.00;;;;;;5033561;28;20519;-67
2021/08/11 05:07:18;;;;;;;0.40;0.20;;;23.70;1.00;;;;;;5033596;28;20261;-67
2021/08/11 05:09:44;;;;;;;0.40;0.20;;;23.40;1.00;;;;;;5033454;28;20192;-67
2021/08/11 05:12:09;;;;;;;1.33;1.07;;;23.70;1.00;;;;;;5032670;28;20381;-67
2021/08/11 05:14:35;;;;;;;0.40;0.20;;;24.00;99.90;;;;;;5033415;28;20246;-67
2021/08/11 05:17:01;;;;;;;0.70;0.70;;;25.10;99.90;;;;;;5033284;28;20208;-67
2021/08/11 05:19:26;;;;;;;0.50;0.40;;;26.40;22.70;;;;;;5033599;28;20265;-67
2021/08/11 05:21:52;;;;;;;0.40;0.20;;;27.40;1.00;;;;;;5033364;28;20192;-67
2021/08/11 05:24:18;;;;;;;0.77;0.33;;;27.90;1.00;;;;;;5033384;28;20185;-68
2021/08/11 05:26:45;;;;;;;0.40;0.13;;;27.70;1.00;;;;;;5033416;28;20212;-68
2021/08/11 05:29:19;;;;;;;0.60;0.60;;;28.00;1.00;;;;;;5033452;28;20742;-67
2021/08/11 05:31:45;;;;;;;0.40;0.20;;;27.70;1.00;;;;;;5034688;28;20507;-67
2021/08/11 05:34:11;;;;;;;0.40;0.20;;;28.50;1.00;;;;;;5037330;28;20447;-67
2021/08/11 05:36:36;;;;;;;0.40;0.20;;;29.00;1.00;;;;;;5037344;28;20475;-67
2021/08/11 05:39:03;;;;;;;0.73;0.73;;;28.90;1.00;;;;;;5037255;28;20177;-67
2021/08/11 05:41:28;;;;;;;0.43;0.23;;;29.00;1.00;;;;;;5037435;28;20196;-67
2021/08/11 05:43:54;;;;;;;0.40;0.20;;;28.10;1.00;;;;;;5037095;28;20428;-67
2021/08/11 05:46:19;;;;;;;0.87;0.73;;;27.90;1.00;;;;;;5037027;28;20185;-66
2021/08/11 05:48:45;;;;;;;0.60;0.53;;;28.60;1.00;;;;;;5036943;28;20193;-67
2021/08/11 05:51:13;;;;;;;0.40;0.20;;;29.10;1.00;;;;;;5037345;28;20217;-67
2021/08/11 05:53:38;;;;;;;0.40;0.20;;;29.80;1.00;;;;;;5037875;28;20645;-69
2021/08/11 05:56:04;;;;;;;1.43;1.33;;;30.50;1.00;;;;;;5037335;28;20455;-68
2021/08/11 05:58:30;;;;;;;2.00;1.23;;;29.50;1.00;;;;;;5037031;28;20480;-68
2021/08/11 06:00:55;;;;;;;0.40;0.20;;;29.60;1.00;;;;;;5037168;28;20182;-67
2021/08/11 06:03:21;;;;;;;0.40;0.20;;;30.40;1.00;;;;;;5038773;28;20343;-67
2021/08/11 06:05:46;;;;;;;0.40;0.10;;;29.90;1.00;;;;;;5038567;28;20186;-68
2021/08/11 06:08:12;;;;;;;0.40;0.20;;;29.60;1.00;;;;;;5037942;28;20559;-67
2021/08/11 06:10:39;;;;;;;0.50;0.30;;;29.50;1.00;;;;;;5038424;28;20276;-67
2021/08/11 06:13:04;;;;;;;0.90;0.40;;;29.90;1.00;;;;;;5037966;28;20668;-67
2021/08/11 06:15:30;;;;;;;0.40;0.20;;;29.60;1.00;;;;;;5038149;28;20424;-67
2021/08/11 06:17:56;;;;;;;0.40;0.20;;;29.60;1.00;;;;;;5038641;28;20212;-67
2021/08/11 06:20:22;;;;;;;0.50;0.20;;;29.60;1.00;;;;;;5038230;28;20531;-68
2021/08/11 06:22:49;;;;;;;0.50;0.30;;;28.90;1.00;;;;;;5038571;28;20962;-68
2021/08/11 06:25:18;;;;;;;0.40;0.20;;;28.50;1.00;;;;;;5037234;28;20427;-68
2021/08/11 06:27:43;;;;;;;0.40;0.20;;;29.50;1.00;;;;;;5037905;28;20909;-68
2021/08/11 06:30:10;;;;;;;1.83;0.43;;;30.00;1.00;;;;;;5036336;28;20435;-68
2021/08/11 06:32:37;;;;;;;0.40;0.20;;;29.90;1.00;;;;;;5036262;28;20188;-68
2021/08/11 06:35:03;;;;;;;0.50;0.20;;;30.20;1.00;;;;;;5029725;28;20432;-68
2021/08/11 06:37:28;;;;;;;1.57;1.47;;;29.00;1.00;;;;;;5036118;28;20549;-68
2021/08/11 06:39:54;;;;;;;0.40;0.20;;;28.20;1.00;;;;;;5035921;28;20428;-68
2021/08/11 06:42:20;;;;;;;1.33;1.23;;;26.80;1.00;;;;;;5035818;28;20189;-68
2021/08/11 06:44:45;;;;;;;0.50;0.40;;;27.00;1.00;;;;;;5035111;28;20185;-68
2021/08/11 06:47:11;;;;;;;0.40;0.20;;;26.90;1.00;;;;;;5035821;28;20192;-68
2021/08/11 06:49:36;;;;;;;0.50;0.30;;;27.20;1.00;;;;;;5033285;28;20276;-68
2021/08/11 06:52:02;;;;;;;0.40;0.23;;;28.00;1.00;;;;;;5034259;28;20243;-68
2021/08/11 06:54:28;;;;;;;0.70;0.57;;;27.50;1.00;;;;;;5032514;28;20193;-68
2021/08/11 06:56:54;;;;;;;0.40;0.20;;;27.80;1.00;;;;;;5035665;28;20472;-68
2021/08/11 06:59:20;;;;;;;0.63;0.63;;;26.20;1.00;;;;;;5034743;28;20452;-68
2021/08/11 07:01:45;;;;;;;0.50;0.27;;;24.70;99.90;;;;;;5032972;28;20439;-69
2021/08/11 07:04:11;;;;;;;0.40;0.20;;;24.20;99.90;;;;;;5035696;28;20186;-65
2021/08/11 07:06:40;;;;;;;0.60;0.43;;;24.10;99.90;;;;;;5040584;28;20186;-65
2021/08/11 07:09:06;;;;;;;0.80;0.60;;;24.50;99.90;;;;;;5033684;28;20276;-64
2021/08/11 07:11:32;;;;;;;0.40;0.20;;;24.70;99.90;;;;;;5035116;28;20792;-64
2021/08/11 07:13:57;;;;;;;0.67;0.67;;;24.50;99.90;;;;;;5032373;28;20475;-64
2021/08/11 07:16:23;;;;;;;0.40;0.20;;;24.70;99.90;;;;;;5034719;28;20196;-64
2021/08/11 07:18:48;;;;;;;0.40;0.10;;;24.80;99.90;;;;;;5034530;28;20184;-64
2021/08/11 07:21:14;;;;;;;3.70;1.50;;;25.90;92.50;;;;;;5034914;28;20178;-64
2021/08/11 07:23:39;;;;;;;0.97;0.83;;;26.30;1.00;;;;;;5035070;28;20174;-64
2021/08/11 07:26:05;;;;;;;0.63;0.60;;;26.30;1.00;;;;;;5034821;28;20189;-64
2021/08/11 07:28:31;;;;;;;0.50;0.20;;;24.90;99.90;;;;;;5032019;28;20268;-64
2021/08/11 07:30:56;;;;;;;2.00;1.63;;;24.10;99.90;;;;;;5032916;28;20519;-64
2021/08/11 07:33:24;;;;;;;0.70;0.67;;;23.20;99.90;;;;;;5034974;28;20228;-65
2021/08/11 07:35:49;;;;;;;0.57;0.57;;;22.60;1.00;;;;;;5031025;28;20192;-66
2021/08/11 07:38:16;;;;;;;0.40;0.20;;;21.50;99.90;;;;;;5034596;28;20471;-68
2021/08/11 07:40:42;;;;;;;0.40;0.10;;;21.50;99.90;;;;;;5034574;28;20178;-65
2021/08/11 07:43:08;;;;;;;0.50;0.30;;;21.70;1.00;;;;;;5034911;28;20470;-65
2021/08/11 07:45:34;;;;;;;1.80;1.03;;;21.40;1.00;;;;;;5034885;28;20523;-64
2021/08/11 07:47:59;;;;;;;5.40;1.43;;;21.30;99.90;;;;;;5034823;28;20606;-64
2021/08/11 07:50:28;;;;;;;0.40;0.20;;;21.20;99.90;;;;;;5034537;28;20448;-64
2021/08/11 07:52:54;;;;;;;1.57;0.70;;;21.20;99.90;;;;;;5013732;28;20622;-64
2021/08/11 07:55:20;;;;;;;0.50;0.20;;;21.10;99.90;;;;;;5014154;28;20437;-66
2021/08/11 07:57:46;;;;;;;0.60;0.40;;;20.70;1.00;;;;;;5025341;28;20495;-65
2021/08/11 08:00:13;;;;;;;0.40;0.20;;;20.60;33.10;;;;;;5034373;28;20174;-64
2021/08/11 08:02:39;;;;;;;0.90;0.90;;;20.60;99.90;;;;;;5034384;28;20602;-67
2021/08/11 08:05:06;;;;;;;0.40;0.20;;;20.80;99.90;;;;;;5034476;28;20866;-68
2021/08/11 08:07:31;;;;;;;0.70;0.53;;;21.00;1.00;;;;;;5034282;28;20500;-67
2021/08/11 08:09:57;;;;;;;0.90;0.70;;;21.50;1.00;;;;;;5033901;28;20519;-68
2021/08/11 08:12:23;;;;;;;0.40;0.20;;;21.90;1.00;;;;;;5034470;28;20637;-68
2021/08/11 08:14:48;;;;;;;0.70;0.53;;;21.80;1.00;;;;;;5034462;28;20622;-68
2021/08/11 08:17:14;;;;;;;0.60;0.50;;;21.60;98.30;;;;;;5034129;28;20202;-69
2021/08/11 08:19:39;;;;;;;0.60;0.53;;;21.60;1.00;;;;;;5029402;28;20178;-66
2021/08/11 08:22:05;;;;;;;0.57;0.57;;;21.80;29.20;;;;;;5032741;28;20189;-69
2021/08/11 08:24:32;;;;;;;0.40;0.20;;;21.90;1.00;;;;;;5033572;28;20256;-68
2021/08/11 08:26:59;;;;;;;0.70;0.70;;;21.90;99.90;;;;;;5033333;28;20611;-67
2021/08/11 08:29:25;;;;;;;1.80;1.70;;;21.80;1.00;;;;;;5033654;28;20428;-67
2021/08/11 08:31:50;;;;;;;0.40;0.20;;;21.60;1.00;;;;;;5033974;28;20875;-68
2021/08/11 08:34:16;;;;;;;0.40;0.20;;;22.20;1.00;;;;;;5033984;28;20184;-71
2021/08/11 08:36:42;;;;;;;0.40;0.17;;;21.90;1.00;;;;;;5032654;28;20258;-68
2021/08/11 08:39:08;;;;;;;0.50;0.20;;;22.10;99.90;;;;;;5033582;28;20184;-67
2021/08/11 08:41:34;;;;;;;0.87;0.87;;;22.50;99.90;;;;;;5033212;28;20813;-68
2021/08/11 08:44:00;;;;;;;0.50;0.30;;;22.60;1.00;;;;;;5033379;28;20664;-69
2021/08/11 08:46:26;;;;;;;0.40;0.20;;;22.50;57.90;;;;;;5033619;28;20431;-70
2021/08/11 08:48:53;;;;;;;0.40;0.10;;;23.10;64.40;;;;;;5033365;28;20424;-68
2021/08/11 08:51:22;;;;;;;0.93;0.93;;;22.90;59.00;;;;;;5033869;28;20416;-68
2021/08/11 08:53:48;;;;;;;1.93;1.70;;;22.30;99.90;;;;;;5033448;28;20840;-68
2021/08/11 08:56:14;;;;;;;0.40;0.20;;;22.20;99.90;;;;;;5033269;28;20452;-66
2021/08/11 08:58:40;;;;;;;1.73;0.83;;;22.10;99.90;;;;;;5033518;28;20839;-67
2021/08/11 09:01:06;;;;;;;0.50;0.20;;;22.10;1.00;;;;;;5033437;28;20170;-66
2021/08/11 09:03:32;;;;;;;0.40;0.20;;;22.80;99.90;;;;;;5033486;28;20463;-66
2021/08/11 09:05:58;;;;;;;0.40;0.20;;;23.60;1.00;;;;;;5034799;28;20459;-69
2021/08/11 09:08:24;;;;;;;0.70;0.50;;;23.80;1.00;;;;;;5033824;28;20173;-67
2021/08/11 09:10:49;;;;;;;0.40;0.20;;;23.40;99.90;;;;;;5033378;28;20190;-67
2021/08/11 09:13:21;;;;;;;0.40;0.20;;;23.00;1.00;;;;;;5033560;28;20550;-66
2021/08/11 09:15:54;;;;;;;0.40;0.20;;;23.20;99.90;;;;;;5033323;28;20246;-67
2021/08/11 09:18:26;;;;;;;0.50;0.40;;;23.50;99.90;;;;;;5033440;28;20464;-67
2021/08/11 09:21:02;;;;;;;0.63;0.50;;;23.70;99.90;;;;;;5033830;28;20755;-67
2021/08/11 09:23:37;;;;;;;0.40;0.20;;;24.10;99.90;;;;;;5033634;28;20888;-67
2021/08/11 09:26:05;;;;;;;0.50;0.20;;;23.70;99.90;;;;;;5033415;28;20428;-67
2021/08/11 09:28:34;;;;;;;0.40;0.10;;;23.20;99.90;;;;;;5033135;28;20515;-67
2021/08/11 09:30:59;;;;;;;1.70;1.47;;;23.10;1.00;;;;;;5033516;28;20952;-67
2021/08/11 09:33:25;;;;;;;0.40;0.20;;;22.60;1.00;;;;;;5032441;28;20603;-67
2021/08/11 09:35:52;;;;;;;0.50;0.40;;;22.50;1.00;;;;;;5033512;28;20259;-69
2021/08/11 09:38:19;;;;;;;0.50;0.20;;;22.60;1.00;;;;;;5032219;28;20464;-68
2021/08/11 09:40:46;;;;;;;0.70;0.43;;;22.80;1.00;;;;;;5033933;28;20427;-69
2021/08/11 09:43:16;;;;;;;0.83;0.40;;;23.10;1.00;;;;;;5033517;28;20436;-67
2021/08/11 09:45:43;;;;;;;2.67;0.37;;;23.20;1.00;;;;;;5033288;28;20452;-66
2021/08/11 09:48:09;;;;;;;0.40;0.20;;;23.40;99.90;;;;;;5033261;28;20424;-68
2021/08/11 09:50:49;;;;;;;0.50;0.20;;;23.80;99.90;;;;;;5033057;28;20982;-67
2021/08/11 09:53:32;;;;;;;1.47;0.77;;;24.30;24.90;;;;;;5033077;28;20177;-69
2021/08/11 09:56:11;;;;;;;0.63;0.30;;;24.40;1.00;;;;;;5033407;28;20909;-66
2021/08/11 09:58:38;;;;;;;0.50;0.20;;;24.70;1.00;;;;;;5033016;28;20454;-67
2021/08/11 10:01:25;;;;;;;0.50;0.20;;;24.80;1.00;;;;;;5033010;28;20949;-67
2021/08/11 10:04:01;;;;;;;0.50;0.20;;;24.80;1.00;;;;;;5025431;28;20440;-66
2021/08/11 10:06:35;;;;;;;0.50;0.20;;;24.30;26.50;;;;;;5031572;28;20486;-70
2021/08/11 10:09:29;;;;;;;0.50;0.20;;;23.40;99.90;;;;;;5031651;28;20420;-67
2021/08/11 10:11:59;;;;;;;0.40;0.20;;;22.10;1.00;;;;;;5024440;28;20436;-68
2021/08/11 10:14:28;;;;;;;0.47;0.20;;;21.80;99.90;;;;;;5027038;28;20908;-67
2021/08/11 10:16:55;;;;;;;0.50;0.40;;;21.90;99.90;;;;;;5031188;28;20495;-68
2021/08/11 10:19:26;;;;;;;0.50;0.20;;;22.10;1.00;;;;;;5034812;28;20489;-69
2021/08/11 10:22:10;;;;;;;0.40;0.20;;;22.40;1.00;;;;;;5036555;28;20796;-67
2021/08/11 10:24:38;;;;;;;0.50;0.20;;;22.80;1.00;;;;;;5035959;28;20424;-67
2021/08/11 10:27:08;;;;;;;0.63;0.57;;;23.50;99.90;;;;;;5036172;28;20909;-69
2021/08/11 10:29:37;;;;;;;0.70;0.50;;;23.90;99.90;;;;;;5050261;28;20514;-68
2021/08/11 10:32:02;;;;;;;0.80;0.60;;;23.60;99.90;;;;;;5032755;28;20940;-67
2021/08/11 10:34:30;;;;;;;0.77;0.30;;;23.70;69.90;;;;;;5034486;28;20472;-67
2021/08/11 10:36:57;;;;;;;0.50;0.20;;;23.90;99.90;;;;;;5034122;28;20460;-67
2021/08/11 10:39:23;;;;;;;1.03;1.03;;;24.50;10.00;;;;;;5035535;28;20727;-67
2021/08/11 10:41:49;;;;;;;0.50;0.20;;;24.50;1.00;;;;;;5027707;28;20644;-67
2021/08/11 10:44:20;;;;;;;0.70;0.50;;;24.70;7.30;;;;;;5025977;28;20428;-67
2021/08/11 10:46:53;;;;;;;0.93;0.83;;;24.70;40.20;;;;;;5027048;28;20458;-67
2021/08/11 10:49:19;;;;;;;0.73;0.30;;;24.70;1.00;;;;;;5035843;28;20478;-67
2021/08/11 10:51:49;;;;;;;0.47;0.20;;;24.90;1.00;;;;;;5036017;28;20443;-68
2021/08/11 10:54:16;;;;;;;0.50;0.20;;;25.30;1.00;;;;;;5026923;28;20428;-68
2021/08/11 10:56:48;;;;;;;0.50;0.30;;;25.30;1.00;;;;;;5025840;28;20483;-68
2021/08/11 10:59:43;;;;;;;1.00;0.50;;;24.80;1.00;;;;;;5026160;28;20799;-68
2021/08/11 11:02:36;;;;;;;0.50;0.30;;;23.70;99.90;;;;;;5025840;28;20946;-68
2021/08/11 11:05:03;;;;;;;0.67;0.40;;;23.00;99.90;;;;;;5025486;28;20721;-68
2021/08/11 11:07:29;;;;;;;0.50;0.20;;;22.40;1.00;;;;;;5024013;28;20940;-67
2021/08/11 11:10:24;;;;;;;0.50;0.20;;;22.40;1.00;;;;;;5026759;28;20432;-67
2021/08/11 11:12:50;;;;;;;0.50;0.20;;;22.50;1.00;;;;;;5034676;28;20235;-67
2021/08/11 11:15:16;;;;;;;0.73;0.70;;;22.60;1.00;;;;;;5026972;28;20438;-67
2021/08/11 11:18:11;;;;;;;0.47;0.17;;;22.30;99.90;;;;;;5028621;28;20220;-68
2021/08/11 11:20:37;;;;;;;0.40;0.20;;;22.50;1.00;;;;;;5033731;28;20553;-67
2021/08/11 11:23:05;;;;;;;0.50;0.20;;;23.00;99.90;;;;;;5034828;28;20455;-68
2021/08/11 11:25:55;;;;;;;0.50;0.17;;;23.60;99.90;;;;;;5024273;28;20991;-68
2021/08/11 11:28:21;;;;;;;0.50;0.20;;;23.90;36.40;;;;;;5027083;28;20473;-69
2021/08/11 11:30:46;;;;;;;1.07;1.07;;;24.30;1.00;;;;;;5024861;28;20490;-69
2021/08/11 11:33:18;;;;;;;0.87;0.87;;;24.10;1.00;;;;;;5018136;28;20292;-69
2021/08/11 11:35:44;;;;;;;0.60;0.30;;;23.90;99.90;;;;;;5022471;28;20197;-69
2021/08/11 11:38:14;;;;;;;0.50;0.20;;;24.10;99.90;;;;;;5026230;28;20564;-69
2021/08/11 11:40:55;;;;;;;1.70;1.07;;;24.10;99.90;;;;;;5036879;28;20924;-67
2021/08/11 11:43:28;;;;;;;0.50;0.20;;;24.00;30.90;;;;;;5032397;28;20513;-67
2021/08/11 11:45:55;;;;;;;0.50;0.20;;;24.00;1.10;;;;;;5031292;28;20421;-67
2021/08/11 11:48:21;;;;;;;0.50;0.20;;;24.10;35.50;;;;;;5032093;28;20440;-67
2021/08/11 11:51:08;;;;;;;0.50;0.20;;;24.00;1.00;;;;;;5055550;28;20437;-66
2021/08/11 11:53:36;;;;;;;0.70;0.33;;;23.20;99.90;;;;;;5054774;28;20447;-66
2021/08/11 11:56:13;;;;;;;0.50;0.20;;;22.70;99.90;;;;;;5055080;28;20789;-67
2021/08/11 11:58:47;;;;;;;0.50;0.10;;;22.80;99.90;;;;;;5035597;28;20460;-67
2021/08/11 12:01:14;;;;;;;0.50;0.10;;;23.10;99.90;;;;;;5035333;28;20450;-68
2021/08/11 12:03:46;;;;;;;0.50;0.20;;;23.50;19.30;;;;;;5033789;28;20897;-67
2021/08/11 12:06:12;;;;;;;1.13;0.40;;;23.90;1.00;;;;;;5016504;28;20495;-67
2021/08/11 12:08:38;;;;;;;0.80;0.60;;;23.90;1.00;;;;;;5015591;28;20456;-67
2021/08/11 12:11:07;;;;;;;0.70;0.50;;;23.80;1.00;;;;;;5015831;28;20177;-66
2021/08/11 12:13:49;;;;;;;0.80;0.30;;;23.90;1.00;;;;;;5016963;28;20440;-67
2021/08/11 12:16:16;;;;;;;0.50;0.20;;;23.80;31.20;;;;;;5035536;28;20500;-67
2021/08/11 12:18:45;;;;;;;0.50;0.20;;;23.70;87.50;;;;;;5028046;28;20447;-68
2021/08/11 12:21:12;;;;;;;0.50;0.20;;;24.00;36.10;;;;;;5017968;28;20440;-67
2021/08/11 12:23:38;;;;;;;1.13;1.03;;;24.20;19.60;;;;;;5032333;28;20436;-67
2021/08/11 12:26:07;;;;;;;0.50;0.30;;;24.30;1.00;;;;;;5033058;28;20826;-67
2021/08/11 12:28:37;;;;;;;0.50;0.20;;;23.60;99.90;;;;;;5024982;28;20912;-67
2021/08/11 12:31:18;;;;;;;0.50;0.20;;;23.60;99.90;;;;;;5026093;28;20447;-67
2021/08/11 12:33:49;;;;;;;0.50;0.20;;;24.10;99.90;;;;;;5026163;28;20522;-67
2021/08/11 12:36:19;;;;;;;0.70;0.60;;;23.90;99.90;;;;;;5025705;28;20539;-67
2021/08/11 12:38:58;;;;;;;0.50;0.20;;;23.70;99.90;;;;;;5031270;28;20437;-68
2021/08/11 12:41:25;;;;;;;0.83;0.60;;;24.10;99.90;;;;;;5025016;28;20435;-67
2021/08/11 12:43:54;;;;;;;0.50;0.30;;;24.40;15.30;;;;;;5024688;28;20503;-67
2021/08/11 12:46:44;;;;;;;0.50;0.20;;;24.80;1.00;;;;;;5024185;28;20977;-68
2021/08/11 12:49:20;;;;;;;0.80;0.50;;;24.50;1.00;;;;;;5028596;28;20436;-67
2021/08/11 12:52:21;;;;;;;0.50;0.20;;;23.70;99.90;;;;;;5035854;28;20828;-67
2021/08/11 12:55:05;;;;;;;0.50;0.13;;;23.40;99.90;;;;;;5034836;28;20927;-67
2021/08/11 12:57:40;;;;;;;2.07;1.83;;;23.80;99.90;;;;;;5036441;28;20462;-67